Time,TemperatureF,DewpointF,PressureIn,WindDirection,WindDirectionDegrees,WindSpeedMPH,WindSpeedGustMPH,Humidity,HourlyPrecipIn,Conditions,Clouds,dailyrainin,SoftwareType,DateUTC
2013-06-11 00:01:00,68.4,67.5,29.71,SSE,151,0.0,0.0,97,0.21,RA,,0.00,WeatherDisplay:10.37,2013-06-11 04:01:00,
2013-06-11 00:05:00,68.4,67.5,29.71,SSE,155,0.0,0.0,97,0.21,RA,,0.00,WeatherDisplay:10.37,2013-06-11 04:05:00,
2013-06-11 00:10:00,68.6,67.7,29.71,SSE,152,2.8,6.0,97,0.20,RA,,0.00,WeatherDisplay:10.37,2013-06-11 04:10:00,
2013-06-11 00:15:00,68.9,68.0,29.71,SSE,151,3.1,6.9,97,0.11,CLR,,0.00,WeatherDisplay:10.37,2013-06-11 04:15:00,
2013-06-11 00:20:00,69.3,68.4,29.71,SE,126,2.5,11.0,97,0.09,RA,,0.01,WeatherDisplay:10.37,2013-06-11 04:20:00,
2013-06-11 00:26:00,69.3,68.4,29.71,SE,131,2.3,11.5,97,0.09,RA,,0.01,WeatherDisplay:10.37,2013-06-11 04:26:00,
2013-06-11 00:31:00,69.4,68.5,29.70,South,174,3.9,6.9,97,0.08,RA,,0.01,WeatherDisplay:10.37,2013-06-11 04:31:00,
2013-06-11 00:36:00,69.4,68.5,29.70,South,174,0.2,6.9,97,0.08,RA,,0.01,WeatherDisplay:10.37,2013-06-11 04:36:00,
2013-06-11 00:41:00,69.4,68.5,29.70,ESE,113,0.1,2.3,97,0.07,,,0.01,WeatherDisplay:10.37,2013-06-11 04:41:00,
2013-06-11 00:46:00,69.6,68.7,29.70,SE,145,2.6,6.9,97,0.06,CLR,,0.01,WeatherDisplay:10.37,2013-06-11 04:46:00,
2013-06-11 00:51:00,69.4,68.5,29.70,South,191,4.9,13.8,97,0.06,CLR,,0.01,WeatherDisplay:10.37,2013-06-11 04:51:00,
2013-06-11 00:57:00,69.4,68.2,29.70,SW,216,0.5,5.0,96,0.05,CLR,,0.01,WeatherDisplay:10.37,2013-06-11 04:57:00,
2013-06-11 01:02:00,69.3,68.1,29.69,South,175,0.8,6.9,96,0.03,CLR,,0.01,WeatherDisplay:10.37,2013-06-11 05:02:00,
2013-06-11 01:07:00,69.3,68.1,29.70,South,169,0.2,5.0,96,0.02,CLR,,0.01,WeatherDisplay:10.37,2013-06-11 05:07:00,
2013-06-11 01:12:00,69.3,68.1,29.69,SSE,167,2.4,2.4,96,0.01,CLR,,0.01,WeatherDisplay:10.37,2013-06-11 05:12:00,
2013-06-11 01:18:00,69.3,68.1,29.68,SSE,165,1.3,6.9,96,0.01,CLR,,0.01,WeatherDisplay:10.37,2013-06-11 05:18:00,
2013-06-11 01:23:00,69.3,68.1,29.68,SSE,162,0.0,0.0,96,0.01,CLR,,0.01,WeatherDisplay:10.37,2013-06-11 05:23:00,
2013-06-11 01:28:00,69.1,67.9,29.68,SE,144,0.0,0.0,96,0.01,CLR,,0.01,WeatherDisplay:10.37,2013-06-11 05:28:00,
2013-06-11 01:33:00,69.1,67.9,29.67,South,176,0.0,0.0,96,0.01,CLR,,0.01,WeatherDisplay:10.37,2013-06-11 05:33:00,
2013-06-11 01:38:00,69.1,67.9,29.67,SSE,161,0.0,3.5,96,0.00,CLR,,0.01,WeatherDisplay:10.37,2013-06-11 05:38:00,
2013-06-11 01:43:00,69.1,67.9,29.66,SSE,158,0.0,0.0,96,0.00,CLR,,0.01,WeatherDisplay:10.37,2013-06-11 05:43:00,
2013-06-11 01:48:00,69.1,67.9,29.66,SSE,154,0.0,4.6,96,0.00,CLR,,0.01,WeatherDisplay:10.37,2013-06-11 05:48:00,
2013-06-11 01:54:00,69.1,67.9,29.66,South,178,0.1,4.6,96,0.00,CLR,,0.01,WeatherDisplay:10.37,2013-06-11 05:54:00,
2013-06-11 01:59:00,69.1,67.9,29.65,South,188,1.2,5.8,96,0.00,CLR,,0.01,WeatherDisplay:10.37,2013-06-11 05:59:00,
2013-06-11 02:04:00,68.9,67.7,29.66,South,172,0.0,0.0,96,0.02,RA,,0.03,WeatherDisplay:10.37,2013-06-11 06:04:00,
2013-06-11 02:09:00,68.9,67.7,29.66,SSW,196,0.3,4.6,96,0.03,RA,,0.04,WeatherDisplay:10.37,2013-06-11 06:09:00,
2013-06-11 02:14:00,68.9,67.7,29.66,SSW,199,0.0,0.0,96,0.04,RA,,0.05,WeatherDisplay:10.37,2013-06-11 06:14:00,
2013-06-11 02:19:00,68.9,67.7,29.66,West,270,2.9,3.5,96,0.05,RA,,0.06,WeatherDisplay:10.37,2013-06-11 06:19:00,
2013-06-11 02:25:00,68.9,67.7,29.66,South,191,0.1,6.9,96,0.05,RA,,0.06,WeatherDisplay:10.37,2013-06-11 06:25:00,
2013-06-11 02:30:00,68.9,67.7,29.66,South,188,0.0,0.0,96,0.05,CLR,,0.06,WeatherDisplay:10.37,2013-06-11 06:30:00,
2013-06-11 02:35:00,68.9,67.7,29.66,South,188,0.6,4.6,96,0.05,CLR,,0.06,WeatherDisplay:10.37,2013-06-11 06:35:00,
2013-06-11 02:40:00,68.8,67.6,29.66,SSW,212,2.2,3.5,96,0.05,CLR,,0.06,WeatherDisplay:10.37,2013-06-11 06:40:00,
2013-06-11 02:45:00,68.8,67.6,29.66,South,191,0.6,4.6,96,0.05,CLR,,0.06,WeatherDisplay:10.37,2013-06-11 06:45:00,
2013-06-11 02:50:00,68.8,67.6,29.67,SW,222,3.2,0.0,96,0.05,CLR,,0.06,WeatherDisplay:10.37,2013-06-11 06:50:00,
2013-06-11 02:56:00,68.8,67.6,29.66,South,191,0.4,3.5,96,0.05,CLR,,0.06,WeatherDisplay:10.37,2013-06-11 06:56:00,
2013-06-11 03:01:00,68.8,67.6,29.66,South,184,6.8,6.9,96,0.05,CLR,,0.06,WeatherDisplay:10.37,2013-06-11 07:01:00,
2013-06-11 03:06:00,68.6,67.4,29.66,South,191,0.0,0.0,96,0.04,CLR,,0.06,WeatherDisplay:10.37,2013-06-11 07:06:00,
2013-06-11 03:11:00,68.6,67.4,29.66,South,186,2.2,6.9,96,0.02,CLR,,0.06,WeatherDisplay:10.37,2013-06-11 07:11:00,
2013-06-11 03:16:00,68.6,67.4,29.66,South,191,4.2,6.9,96,0.01,CLR,,0.06,WeatherDisplay:10.37,2013-06-11 07:16:00,
2013-06-11 03:21:00,68.6,67.4,29.66,SSW,198,0.3,5.8,96,0.01,RA,,0.07,WeatherDisplay:10.37,2013-06-11 07:21:00,
2013-06-11 03:26:00,68.6,67.4,29.66,SW,216,4.4,6.9,96,0.01,RA,,0.07,WeatherDisplay:10.37,2013-06-11 07:26:00,
2013-06-11 03:31:00,68.6,67.4,29.66,SW,220,5.8,11.5,96,0.01,CLR,,0.07,WeatherDisplay:10.37,2013-06-11 07:31:00,
2013-06-11 03:36:00,68.4,67.2,29.66,South,176,6.2,6.9,96,0.01,CLR,,0.07,WeatherDisplay:10.37,2013-06-11 07:36:00,
2013-06-11 03:41:00,68.4,67.2,29.66,SSW,205,0.0,3.5,96,0.01,CLR,,0.07,WeatherDisplay:10.37,2013-06-11 07:41:00,
2013-06-11 03:46:00,68.4,67.2,29.66,South,185,0.0,4.6,96,0.01,CLR,,0.07,WeatherDisplay:10.37,2013-06-11 07:46:00,
2013-06-11 03:51:00,68.4,67.2,29.66,SW,223,3.6,5.8,96,0.01,CLR,,0.07,WeatherDisplay:10.37,2013-06-11 07:51:00,
2013-06-11 03:57:00,68.4,67.2,29.66,SW,227,6.5,11.5,96,0.01,CLR,,0.07,WeatherDisplay:10.37,2013-06-11 07:57:00,
2013-06-11 04:02:00,68.4,67.2,29.66,South,184,2.2,4.6,96,0.01,CLR,,0.07,WeatherDisplay:10.37,2013-06-11 08:02:00,
2013-06-11 04:07:00,68.3,67.1,29.66,WSW,237,2.9,5.8,96,0.01,CLR,,0.07,WeatherDisplay:10.37,2013-06-11 08:07:00,
2013-06-11 04:12:00,68.3,67.1,29.66,SSW,206,0.0,0.0,96,0.01,CLR,,0.07,WeatherDisplay:10.37,2013-06-11 08:12:00,
2013-06-11 04:17:00,68.3,67.1,29.66,West,271,0.7,7.0,96,0.01,CLR,,0.07,WeatherDisplay:10.37,2013-06-11 08:17:00,
2013-06-11 04:22:00,68.1,66.9,29.66,SSW,205,3.5,7.0,96,0.00,CLR,,0.07,WeatherDisplay:10.37,2013-06-11 08:22:00,
2013-06-11 04:28:00,68.1,66.9,29.66,South,182,0.0,6.9,96,0.00,CLR,,0.07,WeatherDisplay:10.37,2013-06-11 08:28:00,
2013-06-11 04:33:00,68.1,66.9,29.67,SSW,196,3.5,6.9,96,0.00,CLR,,0.07,WeatherDisplay:10.37,2013-06-11 08:33:00,
2013-06-11 04:38:00,68.1,66.9,29.67,SSW,192,4.7,8.1,96,0.00,CLR,,0.07,WeatherDisplay:10.37,2013-06-11 08:38:00,
2013-06-11 04:43:00,68.1,66.9,29.67,SSW,210,1.6,8.1,96,0.00,CLR,,0.07,WeatherDisplay:10.37,2013-06-11 08:43:00,
2013-06-11 04:48:00,67.9,66.7,29.67,WSW,244,0.1,10.4,96,0.00,CLR,,0.07,WeatherDisplay:10.37,2013-06-11 08:48:00,
2013-06-11 04:53:00,67.9,66.7,29.67,SW,222,1.6,6.9,96,0.00,CLR,,0.07,WeatherDisplay:10.37,2013-06-11 08:53:00,
2013-06-11 04:59:00,67.8,66.6,29.67,SSW,196,0.5,3.0,96,0.00,CLR,,0.07,WeatherDisplay:10.37,2013-06-11 08:59:00,
2013-06-11 05:04:00,67.8,66.6,29.67,South,189,0.8,5.0,96,0.00,CLR,,0.07,WeatherDisplay:10.37,2013-06-11 09:04:00,
2013-06-11 05:09:00,67.6,66.4,29.67,South,189,0.0,0.0,96,0.00,CLR,,0.07,WeatherDisplay:10.37,2013-06-11 09:09:00,
2013-06-11 05:14:00,67.4,66.2,29.67,SW,217,1.5,4.6,96,0.00,CLR,,0.07,WeatherDisplay:10.37,2013-06-11 09:14:00,
2013-06-11 05:19:00,67.4,66.2,29.67,SW,223,1.2,5.8,96,0.00,CLR,,0.07,WeatherDisplay:10.37,2013-06-11 09:19:00,
2013-06-11 05:24:00,67.3,66.1,29.67,SW,226,1.2,1.2,96,0.00,CLR,,0.07,WeatherDisplay:10.37,2013-06-11 09:24:00,
2013-06-11 05:29:00,67.3,66.1,29.67,SSW,213,0.0,0.0,96,0.00,CLR,,0.07,WeatherDisplay:10.37,2013-06-11 09:29:00,
2013-06-11 05:35:00,67.3,66.1,29.67,SSW,192,0.1,2.3,96,0.00,CLR,,0.07,WeatherDisplay:10.37,2013-06-11 09:35:00,
2013-06-11 05:40:00,67.1,65.9,29.67,SW,216,0.0,0.0,96,0.00,CLR,,0.07,WeatherDisplay:10.37,2013-06-11 09:40:00,
2013-06-11 05:45:00,67.1,65.9,29.67,SSW,210,0.0,0.0,96,0.00,CLR,,0.07,WeatherDisplay:10.37,2013-06-11 09:45:00,
2013-06-11 05:51:00,66.9,65.7,29.67,SSW,200,0.0,0.0,96,0.00,CLR,,0.07,WeatherDisplay:10.37,2013-06-11 09:51:00,
2013-06-11 05:56:00,66.9,65.7,29.67,WSW,243,1.2,0.0,96,0.00,CLR,,0.07,WeatherDisplay:10.37,2013-06-11 09:56:00,
2013-06-11 06:01:00,66.9,65.7,29.67,WSW,253,0.0,0.0,96,0.00,CLR,,0.07,WeatherDisplay:10.37,2013-06-11 10:01:00,
2013-06-11 06:06:00,66.8,65.6,29.67,SSW,208,1.0,3.5,96,0.00,CLR,,0.07,WeatherDisplay:10.37,2013-06-11 10:06:00,
2013-06-11 06:11:00,66.6,65.4,29.67,SSW,206,0.7,4.6,96,0.00,CLR,,0.07,WeatherDisplay:10.37,2013-06-11 10:11:00,
2013-06-11 06:16:00,66.6,65.4,29.67,SW,217,1.7,5.8,96,0.00,CLR,,0.07,WeatherDisplay:10.37,2013-06-11 10:16:00,
2013-06-11 06:21:00,66.6,65.4,29.67,SW,223,0.0,4.6,96,0.00,CLR,,0.07,WeatherDisplay:10.37,2013-06-11 10:21:00,
2013-06-11 06:26:00,66.6,65.4,29.68,SSW,210,0.0,0.0,96,0.00,CLR,,0.07,WeatherDisplay:10.37,2013-06-11 10:26:00,
2013-06-11 06:31:00,66.6,65.4,29.68,SSW,203,0.0,2.3,96,0.00,CLR,,0.07,WeatherDisplay:10.37,2013-06-11 10:31:00,
2013-06-11 06:37:00,66.6,65.4,29.68,SW,227,3.8,5.8,96,0.00,CLR,,0.07,WeatherDisplay:10.37,2013-06-11 10:37:00,
2013-06-11 06:42:00,66.6,65.4,29.67,South,182,1.3,5.8,96,0.00,CLR,,0.07,WeatherDisplay:10.37,2013-06-11 10:42:00,
2013-06-11 06:47:00,66.6,65.4,29.67,SSW,195,0.0,4.6,96,0.00,CLR,,0.07,WeatherDisplay:10.37,2013-06-11 10:47:00,
2013-06-11 06:52:00,66.6,65.7,29.67,SSW,206,0.0,2.3,97,0.00,CLR,,0.07,WeatherDisplay:10.37,2013-06-11 10:52:00,
2013-06-11 06:57:00,66.6,65.4,29.67,WSW,239,0.2,3.5,96,0.00,CLR,,0.07,WeatherDisplay:10.37,2013-06-11 10:57:00,
2013-06-11 07:02:00,66.8,65.6,29.67,SW,223,0.0,3.5,96,0.00,CLR,,0.07,WeatherDisplay:10.37,2013-06-11 11:02:00,
2013-06-11 07:07:00,66.8,65.6,29.67,SW,227,0.2,0.0,96,0.00,CLR,,0.07,WeatherDisplay:10.37,2013-06-11 11:07:00,
2013-06-11 07:13:00,66.9,65.7,29.68,SW,224,0.0,0.0,96,0.00,CLR,,0.07,WeatherDisplay:10.37,2013-06-11 11:13:00,
2013-06-11 07:18:00,66.9,66.0,29.68,SW,224,0.0,0.0,97,0.00,CLR,,0.07,WeatherDisplay:10.37,2013-06-11 11:18:00,
2013-06-11 07:23:00,66.9,65.7,29.68,WSW,247,0.4,0.0,96,0.00,CLR,,0.07,WeatherDisplay:10.37,2013-06-11 11:23:00,
2013-06-11 07:28:00,66.9,65.7,29.68,SSW,202,0.0,0.0,96,0.00,CLR,,0.07,WeatherDisplay:10.37,2013-06-11 11:28:00,
2013-06-11 07:33:00,66.9,65.7,29.68,SSW,212,0.0,0.0,96,0.00,CLR,,0.07,WeatherDisplay:10.37,2013-06-11 11:33:00,
2013-06-11 07:38:00,67.1,65.9,29.68,South,174,1.7,2.0,96,0.00,CLR,,0.07,WeatherDisplay:10.37,2013-06-11 11:38:00,
2013-06-11 07:43:00,67.1,65.9,29.68,SSW,206,0.9,7.0,96,0.00,CLR,,0.07,WeatherDisplay:10.37,2013-06-11 11:43:00,
2013-06-11 07:48:00,67.3,66.1,29.69,WSW,248,0.6,6.0,96,0.00,CLR,,0.07,WeatherDisplay:10.37,2013-06-11 11:48:00,
2013-06-11 07:53:00,67.3,66.1,29.69,WSW,241,0.4,3.5,96,0.00,CLR,,0.07,WeatherDisplay:10.37,2013-06-11 11:53:00,
2013-06-11 07:58:00,67.4,65.9,29.69,WSW,237,1.4,4.6,95,0.00,CLR,,0.07,WeatherDisplay:10.37,2013-06-11 11:58:00,
2013-06-11 08:04:00,67.6,66.1,29.68,SSW,192,3.7,3.7,95,0.00,CLR,,0.07,WeatherDisplay:10.37,2013-06-11 12:04:00,
2013-06-11 08:09:00,67.6,66.1,29.68,SW,230,0.0,1.2,95,0.00,CLR,,0.07,WeatherDisplay:10.37,2013-06-11 12:09:00,
2013-06-11 08:14:00,67.8,66.3,29.68,West,263,0.8,6.0,95,0.00,CLR,,0.07,WeatherDisplay:10.37,2013-06-11 12:14:00,
2013-06-11 08:19:00,67.6,65.8,29.68,WSW,243,4.4,6.9,94,0.00,CLR,,0.07,WeatherDisplay:10.37,2013-06-11 12:19:00,
2013-06-11 08:24:00,67.4,65.3,29.68,WSW,246,1.9,8.1,93,0.00,CLR,,0.07,WeatherDisplay:10.37,2013-06-11 12:24:00,
2013-06-11 08:29:00,67.6,65.2,29.68,South,189,4.4,10.4,92,0.00,CLR,,0.07,WeatherDisplay:10.37,2013-06-11 12:29:00,
2013-06-11 08:34:00,68.1,65.7,29.68,SSW,212,0.5,6.0,92,0.00,CLR,,0.07,WeatherDisplay:10.37,2013-06-11 12:34:00,
2013-06-11 08:40:00,68.3,65.6,29.68,South,185,2.7,5.8,91,0.00,CLR,,0.07,WeatherDisplay:10.37,2013-06-11 12:40:00,
2013-06-11 08:45:00,68.6,65.9,29.68,South,188,1.5,5.0,91,0.00,CLR,,0.07,WeatherDisplay:10.37,2013-06-11 12:45:00,
2013-06-11 08:50:00,68.9,65.8,29.68,West,278,0.8,4.6,90,0.00,CLR,,0.07,WeatherDisplay:10.37,2013-06-11 12:50:00,
2013-06-11 08:55:00,69.3,65.6,29.68,SSW,208,5.3,10.4,88,0.00,CLR,,0.07,WeatherDisplay:10.37,2013-06-11 12:55:00,
2013-06-11 09:00:00,69.3,65.3,29.68,South,189,3.2,5.8,87,0.00,CLR,,0.07,WeatherDisplay:10.37,2013-06-11 13:00:00,
2013-06-11 09:06:00,69.1,64.7,29.68,WSW,246,0.0,5.8,86,0.00,CLR,,0.07,WeatherDisplay:10.37,2013-06-11 13:06:00,
2013-06-11 09:11:00,69.4,64.4,29.68,West,260,5.0,8.1,84,0.00,CLR,,0.07,WeatherDisplay:10.37,2013-06-11 13:11:00,
2013-06-11 09:16:00,69.6,64.5,29.68,SSW,210,5.2,11.0,84,0.00,CLR,,0.07,WeatherDisplay:10.37,2013-06-11 13:16:00,
2013-06-11 09:22:00,69.3,64.3,29.68,SW,232,2.9,9.2,84,0.00,CLR,,0.07,WeatherDisplay:10.37,2013-06-11 13:22:00,
2013-06-11 09:27:00,69.3,64.3,29.68,SSW,208,2.4,6.9,84,0.00,CLR,,0.07,WeatherDisplay:10.37,2013-06-11 13:27:00,
2013-06-11 09:32:00,69.3,64.3,29.68,WSW,257,1.4,3.5,84,0.00,CLR,,0.07,WeatherDisplay:10.37,2013-06-11 13:32:00,
2013-06-11 09:37:00,69.3,63.9,29.68,SW,229,2.2,6.9,83,0.00,CLR,,0.07,WeatherDisplay:10.37,2013-06-11 13:37:00,
2013-06-11 09:42:00,69.3,63.9,29.68,WNW,301,0.8,5.8,83,0.00,CLR,,0.07,WeatherDisplay:10.37,2013-06-11 13:42:00,
2013-06-11 09:47:00,69.4,63.7,29.67,SSW,205,1.8,4.6,82,0.00,CLR,,0.07,WeatherDisplay:10.37,2013-06-11 13:47:00,
2013-06-11 09:52:00,69.8,64.1,29.67,WSW,244,1.8,2.3,82,0.00,CLR,,0.07,WeatherDisplay:10.37,2013-06-11 13:52:00,
2013-06-11 09:58:00,69.9,63.8,29.67,SSW,206,1.0,2.3,81,0.00,CLR,,0.07,WeatherDisplay:10.37,2013-06-11 13:58:00,
2013-06-11 10:03:00,70.4,64.3,29.67,SSW,213,1.2,1.2,81,0.00,CLR,,0.07,WeatherDisplay:10.37,2013-06-11 14:03:00,
2013-06-11 10:08:00,70.6,64.1,29.66,WSW,237,1.0,6.0,80,0.00,CLR,,0.07,WeatherDisplay:10.37,2013-06-11 14:08:00,
2013-06-11 10:13:00,70.6,64.1,29.66,SW,222,1.9,4.6,80,0.00,CLR,,0.07,WeatherDisplay:10.37,2013-06-11 14:13:00,
2013-06-11 10:19:00,70.8,64.0,29.66,South,174,2.5,11.5,79,0.00,CLR,,0.07,WeatherDisplay:10.37,2013-06-11 14:19:00,
2013-06-11 10:24:00,70.9,63.3,29.66,WSW,251,3.5,6.9,77,0.00,CLR,,0.07,WeatherDisplay:10.37,2013-06-11 14:24:00,
2013-06-11 10:29:00,70.8,63.2,29.66,SW,229,2.7,5.8,77,0.00,CLR,,0.07,WeatherDisplay:10.37,2013-06-11 14:29:00,
2013-06-11 10:34:00,71.1,63.9,29.66,SW,234,1.8,6.9,78,0.00,CLR,,0.07,WeatherDisplay:10.37,2013-06-11 14:34:00,
2013-06-11 10:39:00,71.3,63.7,29.66,WSW,239,3.6,3.6,77,0.00,CLR,,0.07,WeatherDisplay:10.37,2013-06-11 14:39:00,
2013-06-11 10:44:00,71.1,63.5,29.66,West,277,1.6,4.6,77,0.00,CLR,,0.07,WeatherDisplay:10.37,2013-06-11 14:44:00,
2013-06-11 10:50:00,71.3,63.7,29.66,WNW,285,4.2,7.0,77,0.00,CLR,,0.07,WeatherDisplay:10.37,2013-06-11 14:50:00,
2013-06-11 10:55:00,71.1,63.5,29.66,West,270,2.2,6.9,77,0.00,CLR,,0.07,WeatherDisplay:10.37,2013-06-11 14:55:00,
2013-06-11 11:00:00,71.1,63.5,29.66,SSW,210,0.6,1.0,77,0.00,CLR,,0.07,WeatherDisplay:10.37,2013-06-11 15:00:00,
2013-06-11 11:05:00,71.6,64.0,29.66,WNW,285,2.2,4.6,77,0.00,CLR,,0.07,WeatherDisplay:10.37,2013-06-11 15:05:00,
2013-06-11 11:10:00,71.5,63.5,29.66,WSW,258,5.1,5.8,76,0.00,CLR,,0.07,WeatherDisplay:10.37,2013-06-11 15:10:00,
2013-06-11 11:15:00,71.3,63.3,29.66,SSW,202,3.5,5.8,76,0.00,CLR,,0.07,WeatherDisplay:10.37,2013-06-11 15:15:00,
2013-06-11 11:20:00,72.0,63.6,29.66,SSW,210,2.7,5.8,75,0.00,CLR,,0.07,WeatherDisplay:10.37,2013-06-11 15:20:00,
2013-06-11 11:25:00,72.5,63.4,29.66,WNW,301,3.4,5.8,73,0.00,CLR,,0.07,WeatherDisplay:10.37,2013-06-11 15:25:00,
2013-06-11 11:31:00,72.0,63.3,29.66,WSW,257,4.4,8.1,74,0.00,CLR,,0.07,WeatherDisplay:10.37,2013-06-11 15:31:00,
2013-06-11 11:36:00,71.8,63.4,29.65,WSW,257,1.3,3.5,75,0.00,CLR,,0.07,WeatherDisplay:10.37,2013-06-11 15:36:00,
2013-06-11 11:41:00,71.6,63.3,29.66,West,278,4.2,5.8,75,0.00,CLR,,0.07,WeatherDisplay:10.37,2013-06-11 15:41:00,
2013-06-11 11:46:00,71.6,63.3,29.65,SW,229,3.2,3.2,75,0.00,CLR,,0.07,WeatherDisplay:10.37,2013-06-11 15:46:00,
2013-06-11 11:51:00,72.1,63.4,29.65,West,275,2.1,6.9,74,0.00,CLR,,0.07,WeatherDisplay:10.37,2013-06-11 15:51:00,
2013-06-11 11:56:00,73.0,63.8,29.64,South,169,2.9,5.8,73,0.00,CLR,,0.07,WeatherDisplay:10.37,2013-06-11 15:56:00,
2013-06-11 12:01:00,73.3,64.5,29.64,SSW,213,8.3,11.5,74,0.00,CLR,,0.07,WeatherDisplay:10.37,2013-06-11 16:01:00,
2013-06-11 12:07:00,73.7,64.9,29.64,SW,230,4.5,7.0,74,0.00,CLR,,0.07,WeatherDisplay:10.37,2013-06-11 16:07:00,
2013-06-11 12:12:00,74.2,65.0,29.64,SSW,206,1.4,3.5,73,0.00,CLR,,0.07,WeatherDisplay:10.37,2013-06-11 16:12:00,
2013-06-11 12:17:00,74.0,64.0,29.63,WSW,247,6.1,12.7,71,0.00,CLR,,0.07,WeatherDisplay:10.37,2013-06-11 16:17:00,
2013-06-11 12:22:00,73.9,63.5,29.63,West,272,3.9,11.5,70,0.00,CLR,,0.07,WeatherDisplay:10.37,2013-06-11 16:22:00,
2013-06-11 12:27:00,74.4,64.4,29.62,West,264,4.6,10.4,71,0.00,CLR,,0.07,WeatherDisplay:10.37,2013-06-11 16:27:00,
2013-06-11 12:32:00,74.7,64.7,29.62,South,179,2.8,3.5,71,0.00,CLR,,0.07,WeatherDisplay:10.37,2013-06-11 16:32:00,
2013-06-11 12:37:00,74.9,64.0,29.62,WSW,253,9.1,13.8,69,0.00,CLR,,0.07,WeatherDisplay:10.37,2013-06-11 16:37:00,
2013-06-11 12:43:00,74.2,63.8,29.62,WNW,298,5.9,10.4,70,0.00,CLR,,0.07,WeatherDisplay:10.37,2013-06-11 16:43:00,
2013-06-11 12:48:00,73.7,63.7,29.62,SSW,210,7.8,13.8,71,0.00,CLR,,0.07,WeatherDisplay:10.37,2013-06-11 16:48:00,
2013-06-11 12:53:00,73.5,64.3,29.62,South,185,1.4,10.4,73,0.00,CLR,,0.07,WeatherDisplay:10.37,2013-06-11 16:53:00,
2013-06-11 12:58:00,74.0,64.8,29.61,South,186,2.2,6.9,73,0.00,CLR,,0.07,WeatherDisplay:10.37,2013-06-11 16:58:00,
2013-06-11 13:03:00,74.4,65.6,29.61,South,189,5.7,6.9,74,0.00,CLR,,0.07,WeatherDisplay:10.37,2013-06-11 17:03:00,
2013-06-11 13:09:00,74.2,65.0,29.61,SW,220,6.3,13.8,73,0.00,CLR,,0.07,WeatherDisplay:10.37,2013-06-11 17:09:00,
2013-06-11 13:14:00,73.9,64.7,29.61,WSW,246,3.5,8.1,73,0.00,CLR,,0.07,WeatherDisplay:10.37,2013-06-11 17:14:00,
2013-06-11 13:19:00,73.5,64.3,29.61,SW,236,2.5,5.8,73,0.00,CLR,,0.07,WeatherDisplay:10.37,2013-06-11 17:19:00,
2013-06-11 13:24:00,73.7,63.7,29.61,SW,236,2.9,11.5,71,0.00,CLR,,0.07,WeatherDisplay:10.37,2013-06-11 17:24:00,
2013-06-11 13:29:00,74.2,64.2,29.61,WSW,256,4.9,11.5,71,0.00,CLR,,0.07,WeatherDisplay:10.37,2013-06-11 17:29:00,
2013-06-11 13:34:00,74.4,63.6,29.61,SW,222,7.6,18.4,69,0.00,CLR,,0.07,WeatherDisplay:10.37,2013-06-11 17:34:00,
2013-06-11 13:40:00,74.6,64.2,29.61,WNW,289,1.1,4.6,70,0.00,CLR,,0.07,WeatherDisplay:10.37,2013-06-11 17:40:00,
2013-06-11 13:45:00,74.4,63.6,29.61,WNW,287,1.8,6.9,69,0.00,CLR,,0.07,WeatherDisplay:10.37,2013-06-11 17:45:00,
2013-06-11 13:50:00,73.5,64.3,29.61,WNW,291,2.6,6.9,73,0.00,CLR,,0.07,WeatherDisplay:10.37,2013-06-11 17:50:00,
2013-06-11 13:55:00,73.0,63.8,29.61,NW,309,3.2,6.9,73,0.00,CLR,,0.07,WeatherDisplay:10.37,2013-06-11 17:55:00,
2013-06-11 14:00:00,73.5,64.3,29.61,West,263,4.0,4.6,73,0.00,CLR,,0.07,WeatherDisplay:10.37,2013-06-11 18:00:00,
2013-06-11 14:06:00,73.9,64.3,29.61,SW,223,1.2,3.5,72,0.00,CLR,,0.07,WeatherDisplay:10.37,2013-06-11 18:06:00,
2013-06-11 14:11:00,73.5,63.9,29.61,SW,219,6.7,9.2,72,0.00,CLR,,0.07,WeatherDisplay:10.37,2013-06-11 18:11:00,
2013-06-11 14:16:00,73.2,64.4,29.61,WNW,291,4.0,12.7,74,0.00,CLR,,0.07,WeatherDisplay:10.37,2013-06-11 18:16:00,
2013-06-11 14:21:00,73.0,64.6,29.61,WSW,254,0.8,7.0,75,0.00,CLR,,0.07,WeatherDisplay:10.37,2013-06-11 18:21:00,
2013-06-11 14:27:00,72.8,64.4,29.61,WSW,239,2.6,6.9,75,0.00,CLR,,0.07,WeatherDisplay:10.37,2013-06-11 18:27:00,
2013-06-11 14:32:00,73.0,64.6,29.61,WSW,258,2.1,4.6,75,0.00,CLR,,0.07,WeatherDisplay:10.37,2013-06-11 18:32:00,
2013-06-11 14:37:00,73.3,64.1,29.61,WNW,302,6.3,17.3,73,0.00,CLR,,0.07,WeatherDisplay:10.37,2013-06-11 18:37:00,
2013-06-11 14:42:00,73.9,65.1,29.61,WSW,240,3.2,8.1,74,0.00,CLR,,0.07,WeatherDisplay:10.37,2013-06-11 18:42:00,
2013-06-11 14:47:00,74.6,64.6,29.61,WSW,251,3.6,6.9,71,0.00,CLR,,0.07,WeatherDisplay:10.37,2013-06-11 18:47:00,
2013-06-11 14:52:00,74.6,64.2,29.61,WNW,295,0.6,11.5,70,0.00,CLR,,0.07,WeatherDisplay:10.37,2013-06-11 18:52:00,
2013-06-11 14:57:00,74.0,64.0,29.60,WSW,243,4.0,9.2,71,0.00,CLR,,0.07,WeatherDisplay:10.37,2013-06-11 18:57:00,
2013-06-11 15:02:00,73.5,63.9,29.60,WNW,295,4.8,7.0,72,0.00,CLR,,0.07,WeatherDisplay:10.37,2013-06-11 19:02:00,
2013-06-11 15:07:00,73.3,64.1,29.60,NW,304,1.8,3.5,73,0.00,CLR,,0.07,WeatherDisplay:10.37,2013-06-11 19:07:00,
2013-06-11 15:12:00,73.7,64.1,29.60,WNW,294,2.0,18.4,72,0.00,CLR,,0.07,WeatherDisplay:10.37,2013-06-11 19:12:00,
2013-06-11 15:18:00,74.2,65.0,29.60,SW,222,0.0,3.5,73,0.00,CLR,,0.07,WeatherDisplay:10.37,2013-06-11 19:18:00,
2013-06-11 15:23:00,75.1,65.1,29.60,West,274,1.4,6.9,71,0.00,CLR,,0.07,WeatherDisplay:10.37,2013-06-11 19:23:00,
2013-06-11 15:28:00,75.4,64.9,29.59,SSW,196,1.5,5.8,70,0.00,CLR,,0.07,WeatherDisplay:10.37,2013-06-11 19:28:00,
2013-06-11 15:33:00,75.1,65.5,29.59,West,265,1.3,6.9,72,0.00,CLR,,0.07,WeatherDisplay:10.37,2013-06-11 19:33:00,
2013-06-11 15:38:00,75.8,66.1,29.59,West,281,0.6,3.5,72,0.00,CLR,,0.07,WeatherDisplay:10.37,2013-06-11 19:38:00,
2013-06-11 15:43:00,76.1,65.2,29.59,WSW,241,1.3,8.1,69,0.00,CLR,,0.07,WeatherDisplay:10.37,2013-06-11 19:43:00,
2013-06-11 15:48:00,75.8,64.5,29.59,WSW,237,4.7,12.7,68,0.00,CLR,,0.07,WeatherDisplay:10.37,2013-06-11 19:48:00,
2013-06-11 15:54:00,75.4,64.5,29.58,SSW,200,2.6,8.1,69,0.00,CLR,,0.07,WeatherDisplay:10.37,2013-06-11 19:54:00,
2013-06-11 15:59:00,75.4,64.5,29.58,WNW,301,1.6,8.1,69,0.00,CLR,,0.07,WeatherDisplay:10.37,2013-06-11 19:59:00,
2013-06-11 16:04:00,75.1,64.2,29.59,NW,306,1.2,4.6,69,0.00,CLR,,0.07,WeatherDisplay:10.37,2013-06-11 20:04:00,
2013-06-11 16:09:00,74.9,64.0,29.59,WNW,289,2.5,5.8,69,0.00,CLR,,0.07,WeatherDisplay:10.37,2013-06-11 20:09:00,
2013-06-11 16:14:00,74.9,64.0,29.59,WSW,250,5.7,12.7,69,0.00,CLR,,0.07,WeatherDisplay:10.37,2013-06-11 20:14:00,
2013-06-11 16:19:00,74.9,64.5,29.58,WNW,285,0.2,2.3,70,0.00,CLR,,0.07,WeatherDisplay:10.37,2013-06-11 20:19:00,
2013-06-11 16:24:00,75.1,64.2,29.58,West,264,1.9,8.1,69,0.00,CLR,,0.07,WeatherDisplay:10.37,2013-06-11 20:24:00,
2013-06-11 16:30:00,75.3,64.4,29.58,West,264,0.1,1.2,69,0.00,CLR,,0.07,WeatherDisplay:10.37,2013-06-11 20:30:00,
2013-06-11 16:35:00,75.8,65.3,29.58,West,268,1.9,8.1,70,0.00,CLR,,0.07,WeatherDisplay:10.37,2013-06-11 20:35:00,
2013-06-11 16:40:00,76.7,64.0,29.58,West,267,7.8,16.1,65,0.00,CLR,,0.07,WeatherDisplay:10.37,2013-06-11 20:40:00,
2013-06-11 16:45:00,76.7,64.9,29.58,WSW,256,2.7,4.6,67,0.00,CLR,,0.07,WeatherDisplay:10.37,2013-06-11 20:45:00,
2013-06-11 16:50:00,76.8,63.7,29.58,SW,234,8.0,18.4,64,0.00,CLR,,0.07,WeatherDisplay:10.37,2013-06-11 20:50:00,
2013-06-11 16:55:00,76.3,63.7,29.58,West,264,1.2,16.1,65,0.00,CLR,,0.07,WeatherDisplay:10.37,2013-06-11 20:55:00,
2013-06-11 17:01:00,76.1,63.5,29.58,WSW,257,4.6,17.3,65,0.00,CLR,,0.07,WeatherDisplay:10.37,2013-06-11 21:01:00,
2013-06-11 17:06:00,76.3,63.7,29.58,WSW,248,8.1,17.3,65,0.00,CLR,,0.07,WeatherDisplay:10.37,2013-06-11 21:06:00,
2013-06-11 17:11:00,76.3,63.2,29.58,WNW,299,7.7,24.2,64,0.00,CLR,,0.07,WeatherDisplay:10.37,2013-06-11 21:11:00,
2013-06-11 17:16:00,76.3,64.1,29.58,West,281,5.9,19.6,66,0.00,CLR,,0.07,WeatherDisplay:10.37,2013-06-11 21:16:00,
2013-06-11 17:21:00,76.5,63.9,29.58,SW,229,4.0,18.4,65,0.00,CLR,,0.07,WeatherDisplay:10.37,2013-06-11 21:21:00,
2013-06-11 17:26:00,76.5,63.9,29.58,WNW,294,4.0,10.4,65,0.00,CLR,,0.07,WeatherDisplay:10.37,2013-06-11 21:26:00,
2013-06-11 17:31:00,76.1,63.9,29.58,WSW,251,1.7,16.1,66,0.00,CLR,,0.07,WeatherDisplay:10.37,2013-06-11 21:31:00,
2013-06-11 17:36:00,76.0,63.4,29.58,NW,315,5.8,12.7,65,0.00,CLR,,0.07,WeatherDisplay:10.37,2013-06-11 21:36:00,
2013-06-11 17:41:00,76.0,63.8,29.58,West,281,4.3,6.9,66,0.00,CLR,,0.07,WeatherDisplay:10.37,2013-06-11 21:41:00,
2013-06-11 17:47:00,75.6,63.4,29.58,WSW,241,3.6,10.4,66,0.00,CLR,,0.07,WeatherDisplay:10.37,2013-06-11 21:47:00,
2013-06-11 17:52:00,75.4,64.1,29.58,WNW,301,1.1,6.9,68,0.00,CLR,,0.07,WeatherDisplay:10.37,2013-06-11 21:52:00,
2013-06-11 17:57:00,75.1,63.8,29.58,NW,315,0.0,10.4,68,0.00,CLR,,0.07,WeatherDisplay:10.37,2013-06-11 21:57:00,
2013-06-11 18:02:00,74.9,63.6,29.58,West,261,0.3,3.5,68,0.00,CLR,,0.07,WeatherDisplay:10.37,2013-06-11 22:02:00,
2013-06-11 18:08:00,75.1,63.4,29.58,SW,233,1.2,5.8,67,0.00,CLR,,0.07,WeatherDisplay:10.37,2013-06-11 22:08:00,
2013-06-11 18:13:00,74.7,62.6,29.58,WNW,288,2.8,9.0,66,0.00,CLR,,0.07,WeatherDisplay:10.37,2013-06-11 22:13:00,
2013-06-11 18:18:00,74.9,61.5,29.58,West,277,5.8,16.1,63,0.00,CLR,,0.07,WeatherDisplay:10.37,2013-06-11 22:18:00,
2013-06-11 18:23:00,75.3,61.8,29.58,NW,305,4.7,11.5,63,0.00,CLR,,0.07,WeatherDisplay:10.37,2013-06-11 22:23:00,
2013-06-11 18:28:00,74.9,62.3,29.59,West,268,0.1,2.3,65,0.00,CLR,,0.07,WeatherDisplay:10.37,2013-06-11 22:28:00,
2013-06-11 18:33:00,74.7,62.1,29.59,NW,308,2.0,6.9,65,0.00,CLR,,0.07,WeatherDisplay:10.37,2013-06-11 22:33:00,
2013-06-11 18:38:00,74.6,62.1,29.58,WNW,294,0.0,0.0,65,0.00,CLR,,0.07,WeatherDisplay:10.37,2013-06-11 22:38:00,
2013-06-11 18:44:00,74.4,61.9,29.59,WNW,295,0.0,0.0,65,0.00,CLR,,0.07,WeatherDisplay:10.37,2013-06-11 22:44:00,
2013-06-11 18:49:00,74.4,62.7,29.59,WSW,254,0.0,0.0,67,0.00,CLR,,0.07,WeatherDisplay:10.37,2013-06-11 22:49:00,
2013-06-11 18:54:00,74.2,62.1,29.59,WNW,291,6.7,11.5,66,0.00,CLR,,0.07,WeatherDisplay:10.37,2013-06-11 22:54:00,
2013-06-11 18:59:00,74.2,62.1,29.59,WSW,240,0.0,0.0,66,0.00,CLR,,0.07,WeatherDisplay:10.37,2013-06-11 22:59:00,
2013-06-11 19:04:00,74.2,62.1,29.60,WNW,289,1.2,8.1,66,0.00,CLR,,0.07,WeatherDisplay:10.37,2013-06-11 23:04:00,
2013-06-11 19:09:00,74.0,61.5,29.60,West,280,0.0,5.0,65,0.00,CLR,,0.07,WeatherDisplay:10.37,2013-06-11 23:09:00,
2013-06-11 19:14:00,73.9,61.4,29.60,NW,304,0.0,0.0,65,0.00,CLR,,0.07,WeatherDisplay:10.37,2013-06-11 23:14:00,
2013-06-11 19:19:00,73.7,61.2,29.60,WNW,287,1.6,6.9,65,0.00,CLR,,0.07,WeatherDisplay:10.37,2013-06-11 23:19:00,
2013-06-11 19:24:00,73.5,61.0,29.60,WNW,294,0.6,2.3,65,0.00,CLR,,0.07,WeatherDisplay:10.37,2013-06-11 23:24:00,
2013-06-11 19:29:00,73.5,61.0,29.60,NNW,337,0.0,1.2,65,0.00,CLR,,0.07,WeatherDisplay:10.37,2013-06-11 23:29:00,
2013-06-11 19:35:00,73.2,60.7,29.61,NNW,339,4.9,11.5,65,0.00,CLR,,0.07,WeatherDisplay:10.37,2013-06-11 23:35:00,
2013-06-11 19:40:00,73.2,61.2,29.61,NNE,23,7.9,18.4,66,0.00,CLR,,0.07,WeatherDisplay:10.37,2013-06-11 23:40:00,
2013-06-11 19:45:00,72.5,61.3,29.61,NW,326,1.1,3.5,68,0.00,CLR,,0.07,WeatherDisplay:10.37,2013-06-11 23:45:00,
2013-06-11 19:50:00,72.0,61.7,29.62,NNW,344,0.3,2.3,70,0.00,CLR,,0.07,WeatherDisplay:10.37,2013-06-11 23:50:00,
2013-06-11 19:55:00,71.5,62.0,29.61,WNW,302,0.0,3.5,72,0.00,CLR,,0.07,WeatherDisplay:10.37,2013-06-11 23:55:00,
2013-06-11 20:00:00,71.1,61.6,29.62,NW,309,2.4,5.8,72,0.00,CLR,,0.07,WeatherDisplay:10.37,2013-06-12 00:00:00,
2013-06-11 20:06:00,70.9,61.4,29.62,NW,309,0.5,4.6,72,0.00,CLR,,0.07,WeatherDisplay:10.37,2013-06-12 00:06:00,
2013-06-11 20:11:00,70.9,61.8,29.62,NNW,332,0.0,0.0,73,0.00,CLR,,0.07,WeatherDisplay:10.37,2013-06-12 00:11:00,
2013-06-11 20:16:00,70.8,61.7,29.62,WNW,284,0.3,3.5,73,0.00,CLR,,0.07,WeatherDisplay:10.37,2013-06-12 00:16:00,
2013-06-11 20:21:00,70.4,61.3,29.62,NNW,330,4.3,4.6,73,0.00,CLR,,0.07,WeatherDisplay:10.37,2013-06-12 00:21:00,
2013-06-11 20:27:00,70.4,60.9,29.62,NW,320,2.1,4.6,72,0.00,CLR,,0.07,WeatherDisplay:10.37,2013-06-12 00:27:00,
2013-06-11 20:32:00,70.3,61.2,29.63,NNW,335,1.5,10.4,73,0.00,CLR,,0.07,WeatherDisplay:10.37,2013-06-12 00:32:00,
2013-06-11 20:37:00,70.3,60.8,29.63,WNW,287,0.5,3.5,72,0.00,CLR,,0.07,WeatherDisplay:10.37,2013-06-12 00:37:00,
2013-06-11 20:42:00,70.1,60.3,29.63,NW,311,2.2,12.7,71,0.00,CLR,,0.07,WeatherDisplay:10.37,2013-06-12 00:42:00,
2013-06-11 20:47:00,70.3,60.1,29.63,North,352,2.2,17.3,70,0.00,CLR,,0.07,WeatherDisplay:10.37,2013-06-12 00:47:00,
2013-06-11 20:53:00,70.3,60.4,29.64,NNW,328,1.7,10.0,71,0.00,CLR,,0.07,WeatherDisplay:10.37,2013-06-12 00:53:00,
2013-06-11 20:58:00,69.9,60.1,29.64,West,270,3.3,6.9,71,0.00,CLR,,0.07,WeatherDisplay:10.37,2013-06-12 00:58:00,
2013-06-11 21:03:00,69.8,60.0,29.64,WNW,301,1.7,3.5,71,0.00,CLR,,0.07,WeatherDisplay:10.37,2013-06-12 01:03:00,
2013-06-11 21:08:00,69.9,59.7,29.64,WNW,295,0.8,8.1,70,0.00,CLR,,0.07,WeatherDisplay:10.37,2013-06-12 01:08:00,
2013-06-11 21:13:00,69.8,59.6,29.65,West,272,1.9,10.4,70,0.00,CLR,,0.07,WeatherDisplay:10.37,2013-06-12 01:13:00,
2013-06-11 21:18:00,69.8,59.6,29.65,WNW,282,0.3,5.8,70,0.00,CLR,,0.07,WeatherDisplay:10.37,2013-06-12 01:18:00,
2013-06-11 21:23:00,69.6,59.8,29.65,NW,306,2.4,10.4,71,0.00,CLR,,0.07,WeatherDisplay:10.37,2013-06-12 01:23:00,
2013-06-11 21:28:00,69.6,59.8,29.65,NW,306,0.0,1.2,71,0.00,CLR,,0.07,WeatherDisplay:10.37,2013-06-12 01:28:00,
2013-06-11 21:33:00,69.4,59.2,29.65,NW,312,0.0,0.0,70,0.00,CLR,,0.07,WeatherDisplay:10.37,2013-06-12 01:33:00,
2013-06-11 21:39:00,69.3,59.1,29.65,NW,312,0.0,3.0,70,0.00,CLR,,0.07,WeatherDisplay:10.37,2013-06-12 01:39:00,
2013-06-11 21:44:00,69.3,59.1,29.66,NW,304,1.4,11.5,70,0.00,CLR,,0.07,WeatherDisplay:10.37,2013-06-12 01:44:00,
2013-06-11 21:49:00,69.3,59.1,29.66,NNW,336,0.0,0.0,70,0.00,CLR,,0.07,WeatherDisplay:10.37,2013-06-12 01:49:00,
2013-06-11 21:54:00,69.3,59.1,29.66,North,357,0.0,0.0,70,0.00,CLR,,0.07,WeatherDisplay:10.37,2013-06-12 01:54:00,
2013-06-11 22:02:00,69.4,58.8,29.66,NW,309,0.1,2.3,69,0.00,CLR,,0.07,WeatherDisplay:10.37,2013-06-12 02:02:00,
2013-06-11 22:07:00,69.4,58.8,29.66,WNW,295,0.0,0.0,69,0.00,CLR,,0.07,WeatherDisplay:10.37,2013-06-12 02:07:00,
2013-06-11 22:13:00,69.4,58.8,29.66,NW,306,0.0,0.0,69,0.00,CLR,,0.07,WeatherDisplay:10.37,2013-06-12 02:13:00,
2013-06-11 22:18:00,69.3,58.7,29.66,WSW,239,0.0,0.0,69,0.00,CLR,,0.07,WeatherDisplay:10.37,2013-06-12 02:18:00,
2013-06-11 22:23:00,69.1,58.9,29.66,WSW,246,0.0,0.0,70,0.00,CLR,,0.07,WeatherDisplay:10.37,2013-06-12 02:23:00,
2013-06-11 22:28:00,68.9,59.1,29.67,West,260,0.0,0.0,71,0.00,CLR,,0.07,WeatherDisplay:10.37,2013-06-12 02:28:00,
2013-06-11 22:34:00,68.9,59.5,29.66,West,265,0.0,0.0,72,0.00,CLR,,0.07,WeatherDisplay:10.37,2013-06-12 02:34:00,
2013-06-11 22:39:00,68.8,59.4,29.66,NW,305,1.1,5.8,72,0.00,CLR,,0.07,WeatherDisplay:10.37,2013-06-12 02:39:00,
2013-06-11 22:44:00,68.8,59.8,29.66,West,274,0.2,3.5,73,0.00,CLR,,0.07,WeatherDisplay:10.37,2013-06-12 02:44:00,
2013-06-11 22:49:00,68.8,59.8,29.66,WSW,257,0.0,3.5,73,0.00,CLR,,0.07,WeatherDisplay:10.37,2013-06-12 02:49:00,
2013-06-11 22:54:00,68.8,59.8,29.66,WNW,299,0.0,0.0,73,0.00,CLR,,0.07,WeatherDisplay:10.37,2013-06-12 02:54:00,
2013-06-11 22:59:00,68.8,59.8,29.67,WNW,285,0.0,0.0,73,0.00,CLR,,0.07,WeatherDisplay:10.37,2013-06-12 02:59:00,
2013-06-11 23:04:00,68.6,60.0,29.67,West,275,0.0,0.0,74,0.00,CLR,,0.07,WeatherDisplay:10.37,2013-06-12 03:04:00,
2013-06-11 23:09:00,68.6,60.0,29.66,SW,216,0.0,0.0,74,0.00,CLR,,0.07,WeatherDisplay:10.37,2013-06-12 03:09:00,
2013-06-11 23:15:00,68.4,60.2,29.67,WNW,292,2.7,6.9,75,0.00,CLR,,0.07,WeatherDisplay:10.37,2013-06-12 03:15:00,
2013-06-11 23:20:00,68.3,60.1,29.66,SW,233,0.0,0.0,75,0.00,CLR,,0.07,WeatherDisplay:10.37,2013-06-12 03:20:00,
2013-06-11 23:25:00,68.1,60.2,29.67,WSW,241,0.0,0.0,76,0.00,CLR,,0.07,WeatherDisplay:10.37,2013-06-12 03:25:00,
2013-06-11 23:30:00,67.9,60.4,29.67,West,278,0.0,0.0,77,0.00,CLR,,0.07,WeatherDisplay:10.37,2013-06-12 03:30:00,
2013-06-11 23:35:00,67.8,60.3,29.67,West,267,0.0,0.0,77,0.00,CLR,,0.07,WeatherDisplay:10.37,2013-06-12 03:35:00,
2013-06-11 23:40:00,67.6,60.1,29.67,WNW,292,1.1,2.3,77,0.00,CLR,,0.07,WeatherDisplay:10.37,2013-06-12 03:40:00,
2013-06-11 23:45:00,67.6,60.1,29.67,SSW,206,0.0,0.0,77,0.00,CLR,,0.07,WeatherDisplay:10.37,2013-06-12 03:45:00,
2013-06-11 23:51:00,67.4,59.9,29.67,WNW,301,2.3,6.9,77,0.00,CLR,,0.07,WeatherDisplay:10.37,2013-06-12 03:51:00,
2013-06-11 23:56:00,67.4,59.9,29.67,WNW,295,1.3,4.6,77,0.00,CLR,,0.07,WeatherDisplay:10.37,2013-06-12 03:56:00,